Araxos, Greece

2:23 PM EET on February 08, 2016 (GMT +0200)
Araxos Air Base | | Change Station
CLOSE
Current Station
Airport
Location: Araxos,
Elevation: 49 ft
Nearby Weather Stations

Elev 49 ft 38.15 °N, 21.43 °E | Updated 33 minutes ago

Scattered Clouds
Scattered Clouds
57 °F
Feels Like 57 °F
N
5
Wind Variable Wind from North

Today
High -- | Low -- °F
--% Chance of Precip.
Yesterday
High -- | Low -- °F
Precip. -- in
Pressure 30.24 in
Visibility 6.2 miles
Clouds Scattered Clouds 2500 ft
Dew Point 45 °F
Humidity 63%
Rainfall 0.00 in
Snow Depth Not available.
7:33 AM 6:04 PM
Waning Crescent, 0% visible
METAR LGRX 081150Z 36004KT 9999 SCT025 14/07 Q1024 RMK FEW100 SCT180 BLU
Pressure 30.24 in
Visibility 6.2 miles
Clouds Scattered Clouds 2500 ft
Dew Point 45 °F
Humidity 63%
Rainfall 0.00 in
Snow Depth Not available.
7:33 AM 6:04 PM
Waning Crescent, 0% visible
METAR LGRX 081150Z 36004KT 9999 SCT025 14/07 Q1024 RMK FEW100 SCT180 BLU

10-Day Weather Forecast

Almanac

Astronomy

Feb. 08, 2016 Rise Set
Actual Time
Civil Twilight
Nautical Twilight
Astronomical Twilight
Moon
Length of Visible Light
Length of Day
Tomorrow will be .
, % of the Moon is Illuminated

Today's Extremes

Country Highs Country Lows

Community

WunderPhotos

Upload Photos

1,891,426 photos uploaded!

WunderBlog® & News

Nearby

Air Quality

  Air Quality AQ Index Pollutant
Not available.

Snow Depth

Station Depth Elevation

Earthquake Activity

City Distance Mag. Time & Date
Minimum magnitude displayed is 2.5.

Coastal Water Temperatures

Place Temperature

Stations

Nearby Weather Stations

Station Location Temp. Windchill Dew Point Humidity Wind Precip. Elev Updated Type